sensor_id;sensor_type;location;lat;lon;timestamp;P1;durP1;ratioP1;P2;durP2;ratioP2
28481;SDS011;15703;49.588;6.260;2023-11-21T00:01:00;5.43;;;4.97;;
28481;SDS011;15703;49.588;6.260;2023-11-21T00:03:25;4.67;;;4.27;;
28481;SDS011;15703;49.588;6.260;2023-11-21T00:05:49;4.27;;;3.97;;
28481;SDS011;15703;49.588;6.260;2023-11-21T00:08:12;4.73;;;4.30;;
28481;SDS011;15703;49.588;6.260;2023-11-21T00:10:34;4.70;;;4.00;;
28481;SDS011;15703;49.588;6.260;2023-11-21T00:12:59;4.27;;;3.87;;
28481;SDS011;15703;49.588;6.260;2023-11-21T00:15:23;4.33;;;3.93;;
28481;SDS011;15703;49.588;6.260;2023-11-21T00:17:45;4.40;;;4.00;;
28481;SDS011;15703;49.588;6.260;2023-11-21T00:20:08;4.67;;;3.80;;
28481;SDS011;15703;49.588;6.260;2023-11-21T00:22:35;5.03;;;4.23;;
28481;SDS011;15703;49.588;6.260;2023-11-21T00:24:58;4.93;;;3.57;;
28481;SDS011;15703;49.588;6.260;2023-11-21T00:27:22;4.33;;;3.93;;
28481;SDS011;15703;49.588;6.260;2023-11-21T00:29:44;3.60;;;3.30;;
28481;SDS011;15703;49.588;6.260;2023-11-21T00:32:06;4.27;;;3.90;;
28481;SDS011;15703;49.588;6.260;2023-11-21T00:34:29;3.97;;;3.43;;
28481;SDS011;15703;49.588;6.260;2023-11-21T00:36:51;3.30;;;3.00;;
28481;SDS011;15703;49.588;6.260;2023-11-21T00:39:14;3.40;;;3.10;;
28481;SDS011;15703;49.588;6.260;2023-11-21T00:41:37;3.23;;;2.93;;
28481;SDS011;15703;49.588;6.260;2023-11-21T00:44:00;4.07;;;3.33;;
28481;SDS011;15703;49.588;6.260;2023-11-21T00:46:22;2.83;;;2.63;;
28481;SDS011;15703;49.588;6.260;2023-11-21T00:48:45;3.50;;;3.30;;
28481;SDS011;15703;49.588;6.260;2023-11-21T00:51:10;4.13;;;3.10;;
28481;SDS011;15703;49.588;6.260;2023-11-21T00:53:33;3.53;;;3.20;;
28481;SDS011;15703;49.588;6.260;2023-11-21T00:55:55;3.50;;;3.20;;
28481;SDS011;15703;49.588;6.260;2023-11-21T00:58:20;2.93;;;2.73;;
28481;SDS011;15703;49.588;6.260;2023-11-21T01:00:43;3.60;;;2.77;;
28481;SDS011;15703;49.588;6.260;2023-11-21T01:03:06;3.10;;;2.80;;
28481;SDS011;15703;49.588;6.260;2023-11-21T01:05:29;3.43;;;3.00;;
28481;SDS011;15703;49.588;6.260;2023-11-21T01:07:52;2.93;;;2.73;;
28481;SDS011;15703;49.588;6.260;2023-11-21T01:10:14;3.87;;;2.93;;
28481;SDS011;15703;49.588;6.260;2023-11-21T01:12:38;2.90;;;2.70;;
28481;SDS011;15703;49.588;6.260;2023-11-21T01:15:01;3.17;;;2.90;;
28481;SDS011;15703;49.588;6.260;2023-11-21T01:17:23;3.13;;;2.83;;
28481;SDS011;15703;49.588;6.260;2023-11-21T01:19:46;3.87;;;3.53;;
28481;SDS011;15703;49.588;6.260;2023-11-21T01:22:08;3.50;;;3.20;;
28481;SDS011;15703;49.588;6.260;2023-11-21T01:24:33;3.10;;;2.90;;
28481;SDS011;15703;49.588;6.260;2023-11-21T01:26:58;3.13;;;2.93;;
28481;SDS011;15703;49.588;6.260;2023-11-21T01:29:20;3.20;;;3.00;;
28481;SDS011;15703;49.588;6.260;2023-11-21T01:31:43;3.33;;;3.13;;
28481;SDS011;15703;49.588;6.260;2023-11-21T01:34:05;3.00;;;2.80;;
28481;SDS011;15703;49.588;6.260;2023-11-21T01:36:31;3.17;;;2.90;;
28481;SDS011;15703;49.588;6.260;2023-11-21T01:38:55;3.27;;;3.07;;
28481;SDS011;15703;49.588;6.260;2023-11-21T01:41:20;2.80;;;2.60;;
28481;SDS011;15703;49.588;6.260;2023-11-21T01:43:43;3.50;;;3.00;;
28481;SDS011;15703;49.588;6.260;2023-11-21T01:46:05;3.77;;;2.87;;
28481;SDS011;15703;49.588;6.260;2023-11-21T01:48:28;2.93;;;2.73;;
28481;SDS011;15703;49.588;6.260;2023-11-21T01:50:51;3.47;;;3.17;;
28481;SDS011;15703;49.588;6.260;2023-11-21T01:53:13;3.03;;;2.73;;
28481;SDS011;15703;49.588;6.260;2023-11-21T01:55:36;4.97;;;2.97;;
28481;SDS011;15703;49.588;6.260;2023-11-21T01:58:00;2.70;;;2.50;;
28481;SDS011;15703;49.588;6.260;2023-11-21T02:00:23;3.53;;;2.90;;
28481;SDS011;15703;49.588;6.260;2023-11-21T02:02:46;3.50;;;3.30;;
28481;SDS011;15703;49.588;6.260;2023-11-21T02:05:09;3.20;;;2.90;;
28481;SDS011;15703;49.588;6.260;2023-11-21T02:07:33;2.57;;;2.20;;
28481;SDS011;15703;49.588;6.260;2023-11-21T02:09:56;3.07;;;2.77;;
28481;SDS011;15703;49.588;6.260;2023-11-21T02:12:18;3.10;;;2.80;;
28481;SDS011;15703;49.588;6.260;2023-11-21T02:14:41;3.13;;;2.93;;
28481;SDS011;15703;49.588;6.260;2023-11-21T02:17:04;3.20;;;3.00;;
28481;SDS011;15703;49.588;6.260;2023-11-21T02:19:26;3.10;;;2.90;;
28481;SDS011;15703;49.588;6.260;2023-11-21T02:21:52;2.90;;;2.70;;
28481;SDS011;15703;49.588;6.260;2023-11-21T02:24:15;2.80;;;2.60;;
28481;SDS011;15703;49.588;6.260;2023-11-21T02:26:39;3.50;;;3.20;;
28481;SDS011;15703;49.588;6.260;2023-11-21T02:29:02;3.40;;;2.60;;
28481;SDS011;15703;49.588;6.260;2023-11-21T02:31:26;2.70;;;2.50;;
28481;SDS011;15703;49.588;6.260;2023-11-21T02:33:49;3.30;;;2.60;;
28481;SDS011;15703;49.588;6.260;2023-11-21T02:36:11;3.27;;;2.80;;
28481;SDS011;15703;49.588;6.260;2023-11-21T02:38:33;3.13;;;2.77;;
28481;SDS011;15703;49.588;6.260;2023-11-21T02:40:57;2.70;;;2.50;;
28481;SDS011;15703;49.588;6.260;2023-11-21T02:43:20;2.87;;;2.67;;
28481;SDS011;15703;49.588;6.260;2023-11-21T02:45:43;3.07;;;2.87;;
28481;SDS011;15703;49.588;6.260;2023-11-21T02:48:07;2.73;;;2.50;;
28481;SDS011;15703;49.588;6.260;2023-11-21T02:50:29;4.67;;;2.80;;
28481;SDS011;15703;49.588;6.260;2023-11-21T02:52:51;3.40;;;2.93;;
28481;SDS011;15703;49.588;6.260;2023-11-21T02:55:14;2.90;;;2.70;;
28481;SDS011;15703;49.588;6.260;2023-11-21T02:57:36;3.20;;;2.90;;
28481;SDS011;15703;49.588;6.260;2023-11-21T03:00:00;3.10;;;2.80;;
28481;SDS011;15703;49.588;6.260;2023-11-21T03:02:22;2.87;;;2.60;;
28481;SDS011;15703;49.588;6.260;2023-11-21T03:04:45;3.37;;;2.83;;
28481;SDS011;15703;49.588;6.260;2023-11-21T03:07:09;3.33;;;3.13;;
28481;SDS011;15703;49.588;6.260;2023-11-21T03:09:31;3.03;;;2.80;;
28481;SDS011;15703;49.588;6.260;2023-11-21T03:11:54;2.70;;;2.50;;
28481;SDS011;15703;49.588;6.260;2023-11-21T03:14:16;3.00;;;2.70;;
28481;SDS011;15703;49.588;6.260;2023-11-21T03:16:38;3.60;;;3.30;;
28481;SDS011;15703;49.588;6.260;2023-11-21T03:19:02;5.73;;;2.77;;
28481;SDS011;15703;49.588;6.260;2023-11-21T03:21:24;3.07;;;2.87;;
28481;SDS011;15703;49.588;6.260;2023-11-21T03:23:47;3.00;;;2.80;;
28481;SDS011;15703;49.588;6.260;2023-11-21T03:26:12;3.20;;;3.00;;
28481;SDS011;15703;49.588;6.260;2023-11-21T03:28:35;3.57;;;3.27;;
28481;SDS011;15703;49.588;6.260;2023-11-21T03:30:58;3.20;;;3.00;;
28481;SDS011;15703;49.588;6.260;2023-11-21T03:33:20;3.73;;;3.37;;
28481;SDS011;15703;49.588;6.260;2023-11-21T03:35:42;3.87;;;3.57;;
28481;SDS011;15703;49.588;6.260;2023-11-21T03:38:06;4.40;;;3.40;;
28481;SDS011;15703;49.588;6.260;2023-11-21T03:40:28;3.43;;;3.10;;
28481;SDS011;15703;49.588;6.260;2023-11-21T03:42:51;5.20;;;3.63;;
28481;SDS011;15703;49.588;6.260;2023-11-21T03:45:14;4.17;;;3.83;;
28481;SDS011;15703;49.588;6.260;2023-11-21T03:47:37;3.77;;;3.47;;
28481;SDS011;15703;49.588;6.260;2023-11-21T03:49:59;3.40;;;3.20;;
28481;SDS011;15703;49.588;6.260;2023-11-21T03:52:22;3.70;;;3.40;;
28481;SDS011;15703;49.588;6.260;2023-11-21T03:54:44;3.70;;;3.40;;
28481;SDS011;15703;49.588;6.260;2023-11-21T03:57:06;4.27;;;3.87;;
28481;SDS011;15703;49.588;6.260;2023-11-21T03:59:30;4.63;;;4.20;;
28481;SDS011;15703;49.588;6.260;2023-11-21T04:01:54;4.50;;;3.70;;
28481;SDS011;15703;49.588;6.260;2023-11-21T04:04:18;4.53;;;4.10;;
28481;SDS011;15703;49.588;6.260;2023-11-21T04:06:41;4.43;;;4.03;;
28481;SDS011;15703;49.588;6.260;2023-11-21T04:09:03;4.10;;;3.70;;
28481;SDS011;15703;49.588;6.260;2023-11-21T04:11:26;4.83;;;3.40;;
28481;SDS011;15703;49.588;6.260;2023-11-21T04:13:51;3.93;;;3.63;;
28481;SDS011;15703;49.588;6.260;2023-11-21T04:16:13;3.80;;;3.50;;
28481;SDS011;15703;49.588;6.260;2023-11-21T04:18:36;4.20;;;3.80;;
28481;SDS011;15703;49.588;6.260;2023-11-21T04:20:59;5.97;;;3.70;;
28481;SDS011;15703;49.588;6.260;2023-11-21T04:23:21;3.67;;;3.37;;
28481;SDS011;15703;49.588;6.260;2023-11-21T04:25:44;5.80;;;3.93;;
28481;SDS011;15703;49.588;6.260;2023-11-21T04:28:06;3.77;;;3.37;;
28481;SDS011;15703;49.588;6.260;2023-11-21T04:30:28;3.87;;;3.53;;
28481;SDS011;15703;49.588;6.260;2023-11-21T04:32:51;3.57;;;3.27;;
28481;SDS011;15703;49.588;6.260;2023-11-21T04:35:14;4.00;;;3.67;;
28481;SDS011;15703;49.588;6.260;2023-11-21T04:37:36;5.20;;;3.70;;
28481;SDS011;15703;49.588;6.260;2023-11-21T04:39:58;3.57;;;3.27;;
28481;SDS011;15703;49.588;6.260;2023-11-21T04:42:21;5.37;;;3.17;;
28481;SDS011;15703;49.588;6.260;2023-11-21T04:44:43;3.57;;;3.27;;
28481;SDS011;15703;49.588;6.260;2023-11-21T04:47:06;3.70;;;3.40;;
28481;SDS011;15703;49.588;6.260;2023-11-21T04:49:29;3.70;;;3.40;;
28481;SDS011;15703;49.588;6.260;2023-11-21T04:51:51;3.20;;;2.90;;
28481;SDS011;15703;49.588;6.260;2023-11-21T04:54:13;3.40;;;3.10;;
28481;SDS011;15703;49.588;6.260;2023-11-21T04:56:35;3.83;;;2.83;;
28481;SDS011;15703;49.588;6.260;2023-11-21T04:58:57;3.80;;;2.80;;
28481;SDS011;15703;49.588;6.260;2023-11-21T05:01:20;3.43;;;3.13;;
28481;SDS011;15703;49.588;6.260;2023-11-21T05:03:42;2.87;;;2.67;;
28481;SDS011;15703;49.588;6.260;2023-11-21T05:06:05;3.27;;;2.97;;
28481;SDS011;15703;49.588;6.260;2023-11-21T05:08:27;3.03;;;2.73;;
28481;SDS011;15703;49.588;6.260;2023-11-21T05:10:49;3.20;;;2.73;;
28481;SDS011;15703;49.588;6.260;2023-11-21T05:13:13;3.60;;;2.67;;
28481;SDS011;15703;49.588;6.260;2023-11-21T05:15:36;2.80;;;2.50;;
28481;SDS011;15703;49.588;6.260;2023-11-21T05:18:00;3.50;;;2.53;;
28481;SDS011;15703;49.588;6.260;2023-11-21T05:20:22;3.73;;;2.50;;
28481;SDS011;15703;49.588;6.260;2023-11-21T05:22:45;2.57;;;2.37;;
28481;SDS011;15703;49.588;6.260;2023-11-21T05:25:08;3.03;;;2.77;;
28481;SDS011;15703;49.588;6.260;2023-11-21T05:27:30;4.93;;;2.80;;
28481;SDS011;15703;49.588;6.260;2023-11-21T05:29:52;2.63;;;2.33;;
28481;SDS011;15703;49.588;6.260;2023-11-21T05:32:15;6.63;;;3.10;;
28481;SDS011;15703;49.588;6.260;2023-11-21T05:34:38;2.77;;;2.43;;
28481;SDS011;15703;49.588;6.260;2023-11-21T05:37:01;3.93;;;2.90;;
28481;SDS011;15703;49.588;6.260;2023-11-21T05:39:23;3.07;;;2.63;;
28481;SDS011;15703;49.588;6.260;2023-11-21T05:41:45;2.90;;;2.60;;
28481;SDS011;15703;49.588;6.260;2023-11-21T05:44:10;2.80;;;2.60;;
28481;SDS011;15703;49.588;6.260;2023-11-21T05:46:35;2.90;;;2.70;;
28481;SDS011;15703;49.588;6.260;2023-11-21T05:48:58;2.90;;;2.70;;
28481;SDS011;15703;49.588;6.260;2023-11-21T05:51:20;5.13;;;2.80;;
28481;SDS011;15703;49.588;6.260;2023-11-21T05:53:44;3.97;;;3.07;;
28481;SDS011;15703;49.588;6.260;2023-11-21T05:56:06;3.63;;;3.33;;
28481;SDS011;15703;49.588;6.260;2023-11-21T05:58:29;3.50;;;3.20;;
28481;SDS011;15703;49.588;6.260;2023-11-21T06:00:52;2.97;;;2.77;;
28481;SDS011;15703;49.588;6.260;2023-11-21T06:03:14;3.23;;;2.93;;
28481;SDS011;15703;49.588;6.260;2023-11-21T06:05:39;3.87;;;2.93;;
28481;SDS011;15703;49.588;6.260;2023-11-21T06:08:01;3.60;;;3.30;;
28481;SDS011;15703;49.588;6.260;2023-11-21T06:10:24;5.60;;;3.00;;
28481;SDS011;15703;49.588;6.260;2023-11-21T06:12:47;3.13;;;2.67;;
28481;SDS011;15703;49.588;6.260;2023-11-21T06:15:10;3.60;;;2.77;;
28481;SDS011;15703;49.588;6.260;2023-11-21T06:17:36;3.30;;;2.93;;
28481;SDS011;15703;49.588;6.260;2023-11-21T06:19:58;4.73;;;3.23;;
28481;SDS011;15703;49.588;6.260;2023-11-21T06:22:22;6.03;;;3.40;;
28481;SDS011;15703;49.588;6.260;2023-11-21T06:24:46;3.43;;;3.13;;
28481;SDS011;15703;49.588;6.260;2023-11-21T06:27:08;4.43;;;3.50;;
28481;SDS011;15703;49.588;6.260;2023-11-21T06:29:31;4.43;;;3.87;;
28481;SDS011;15703;49.588;6.260;2023-11-21T06:31:53;5.53;;;3.30;;
28481;SDS011;15703;49.588;6.260;2023-11-21T06:34:16;4.30;;;3.90;;
28481;SDS011;15703;49.588;6.260;2023-11-21T06:36:38;8.30;;;4.10;;
28481;SDS011;15703;49.588;6.260;2023-11-21T06:39:01;4.23;;;3.83;;
28481;SDS011;15703;49.588;6.260;2023-11-21T06:41:24;4.43;;;4.00;;
28481;SDS011;15703;49.588;6.260;2023-11-21T06:43:46;5.00;;;4.50;;
28481;SDS011;15703;49.588;6.260;2023-11-21T06:46:09;4.43;;;4.00;;
28481;SDS011;15703;49.588;6.260;2023-11-21T06:48:33;4.83;;;4.23;;
28481;SDS011;15703;49.588;6.260;2023-11-21T06:50:56;5.73;;;4.93;;
28481;SDS011;15703;49.588;6.260;2023-11-21T06:53:18;5.53;;;4.50;;
28481;SDS011;15703;49.588;6.260;2023-11-21T06:55:41;5.27;;;4.77;;
28481;SDS011;15703;49.588;6.260;2023-11-21T06:58:03;5.93;;;5.23;;
28481;SDS011;15703;49.588;6.260;2023-11-21T07:00:26;6.40;;;4.90;;
28481;SDS011;15703;49.588;6.260;2023-11-21T07:02:49;5.47;;;4.97;;
28481;SDS011;15703;49.588;6.260;2023-11-21T07:05:12;7.43;;;5.27;;
28481;SDS011;15703;49.588;6.260;2023-11-21T07:07:36;6.47;;;5.40;;
28481;SDS011;15703;49.588;6.260;2023-11-21T07:09:59;7.93;;;5.10;;
28481;SDS011;15703;49.588;6.260;2023-11-21T07:12:24;5.10;;;4.60;;
28481;SDS011;15703;49.588;6.260;2023-11-21T07:14:47;6.00;;;5.13;;
28481;SDS011;15703;49.588;6.260;2023-11-21T07:17:10;12.33;;;5.70;;
28481;SDS011;15703;49.588;6.260;2023-11-21T07:19:33;16.37;;;6.47;;
28481;SDS011;15703;49.588;6.260;2023-11-21T07:21:55;7.17;;;5.37;;
28481;SDS011;15703;49.588;6.260;2023-11-21T07:24:18;7.17;;;5.40;;
28481;SDS011;15703;49.588;6.260;2023-11-21T07:26:40;10.47;;;5.30;;
28481;SDS011;15703;49.588;6.260;2023-11-21T07:29:03;4.57;;;4.17;;
28481;SDS011;15703;49.588;6.260;2023-11-21T07:31:25;8.97;;;5.10;;
28481;SDS011;15703;49.588;6.260;2023-11-21T07:33:48;7.00;;;5.03;;
28481;SDS011;15703;49.588;6.260;2023-11-21T07:36:11;7.10;;;4.43;;
28481;SDS011;15703;49.588;6.260;2023-11-21T07:38:33;6.47;;;4.50;;
28481;SDS011;15703;49.588;6.260;2023-11-21T07:40:55;6.13;;;5.20;;
28481;SDS011;15703;49.588;6.260;2023-11-21T07:43:18;10.30;;;5.93;;
28481;SDS011;15703;49.588;6.260;2023-11-21T07:45:41;6.60;;;5.10;;
28481;SDS011;15703;49.588;6.260;2023-11-21T07:48:07;5.90;;;4.80;;
28481;SDS011;15703;49.588;6.260;2023-11-21T07:50:29;5.50;;;4.77;;
28481;SDS011;15703;49.588;6.260;2023-11-21T07:52:52;6.17;;;4.97;;
28481;SDS011;15703;49.588;6.260;2023-11-21T07:55:15;7.27;;;4.97;;
28481;SDS011;15703;49.588;6.260;2023-11-21T07:57:38;6.13;;;4.83;;
28481;SDS011;15703;49.588;6.260;2023-11-21T08:00:00;6.23;;;5.00;;
28481;SDS011;15703;49.588;6.260;2023-11-21T08:02:32;6.77;;;5.30;;
28481;SDS011;15703;49.588;6.260;2023-11-21T08:04:56;6.23;;;5.20;;
28481;SDS011;15703;49.588;6.260;2023-11-21T08:07:20;6.90;;;4.60;;
28481;SDS011;15703;49.588;6.260;2023-11-21T08:09:43;6.13;;;5.10;;
28481;SDS011;15703;49.588;6.260;2023-11-21T08:12:05;5.17;;;4.27;;
28481;SDS011;15703;49.588;6.260;2023-11-21T08:14:29;7.30;;;4.90;;
28481;SDS011;15703;49.588;6.260;2023-11-21T08:16:51;5.03;;;4.57;;
28481;SDS011;15703;49.588;6.260;2023-11-21T08:19:14;5.53;;;4.50;;
28481;SDS011;15703;49.588;6.260;2023-11-21T08:21:37;6.00;;;4.53;;
28481;SDS011;15703;49.588;6.260;2023-11-21T08:24:01;7.20;;;5.00;;
28481;SDS011;15703;49.588;6.260;2023-11-21T08:26:25;5.67;;;4.70;;
28481;SDS011;15703;49.588;6.260;2023-11-21T08:28:48;5.83;;;5.00;;
28481;SDS011;15703;49.588;6.260;2023-11-21T08:31:10;7.17;;;4.77;;
28481;SDS011;15703;49.588;6.260;2023-11-21T08:33:34;6.10;;;5.00;;
28481;SDS011;15703;49.588;6.260;2023-11-21T08:35:56;5.40;;;4.90;;
28481;SDS011;15703;49.588;6.260;2023-11-21T08:38:19;5.97;;;5.13;;
28481;SDS011;15703;49.588;6.260;2023-11-21T08:40:41;6.67;;;5.00;;
28481;SDS011;15703;49.588;6.260;2023-11-21T08:43:04;6.10;;;5.07;;
28481;SDS011;15703;49.588;6.260;2023-11-21T08:45:26;6.00;;;4.80;;
28481;SDS011;15703;49.588;6.260;2023-11-21T08:47:49;5.63;;;5.10;;
28481;SDS011;15703;49.588;6.260;2023-11-21T08:50:11;5.90;;;5.13;;
28481;SDS011;15703;49.588;6.260;2023-11-21T08:52:35;6.83;;;4.87;;
28481;SDS011;15703;49.588;6.260;2023-11-21T08:54:59;6.70;;;5.33;;
28481;SDS011;15703;49.588;6.260;2023-11-21T08:57:29;6.67;;;5.33;;
28481;SDS011;15703;49.588;6.260;2023-11-21T08:59:51;6.33;;;5.73;;
28481;SDS011;15703;49.588;6.260;2023-11-21T09:02:19;9.60;;;5.70;;
28481;SDS011;15703;49.588;6.260;2023-11-21T09:04:41;8.50;;;6.80;;
28481;SDS011;15703;49.588;6.260;2023-11-21T09:07:06;6.83;;;5.70;;
28481;SDS011;15703;49.588;6.260;2023-11-21T09:09:28;7.47;;;5.47;;
28481;SDS011;15703;49.588;6.260;2023-11-21T09:11:51;7.03;;;5.90;;
28481;SDS011;15703;49.588;6.260;2023-11-21T09:14:13;6.57;;;5.47;;
28481;SDS011;15703;49.588;6.260;2023-11-21T09:16:37;6.53;;;4.60;;
28481;SDS011;15703;49.588;6.260;2023-11-21T09:19:00;7.90;;;5.03;;
28481;SDS011;15703;49.588;6.260;2023-11-21T09:21:25;6.73;;;5.00;;
28481;SDS011;15703;49.588;6.260;2023-11-21T09:23:49;5.13;;;4.60;;
28481;SDS011;15703;49.588;6.260;2023-11-21T09:26:11;5.90;;;4.70;;
28481;SDS011;15703;49.588;6.260;2023-11-21T09:28:34;7.73;;;4.90;;
28481;SDS011;15703;49.588;6.260;2023-11-21T09:30:59;6.10;;;5.13;;
28481;SDS011;15703;49.588;6.260;2023-11-21T09:33:24;7.50;;;4.70;;
28481;SDS011;15703;49.588;6.260;2023-11-21T09:35:46;9.17;;;5.07;;
28481;SDS011;15703;49.588;6.260;2023-11-21T09:38:09;7.37;;;5.27;;
28481;SDS011;15703;49.588;6.260;2023-11-21T09:40:32;6.53;;;5.33;;
28481;SDS011;15703;49.588;6.260;2023-11-21T09:42:55;6.03;;;5.00;;
28481;SDS011;15703;49.588;6.260;2023-11-21T09:45:21;6.57;;;4.83;;
28481;SDS011;15703;49.588;6.260;2023-11-21T09:47:47;6.50;;;4.70;;
28481;SDS011;15703;49.588;6.260;2023-11-21T09:50:09;6.53;;;4.70;;
28481;SDS011;15703;49.588;6.260;2023-11-21T09:52:33;6.30;;;5.23;;
28481;SDS011;15703;49.588;6.260;2023-11-21T09:55:00;7.00;;;4.70;;
28481;SDS011;15703;49.588;6.260;2023-11-21T09:57:25;8.07;;;5.50;;
28481;SDS011;15703;49.588;6.260;2023-11-21T09:59:52;5.80;;;4.50;;
28481;SDS011;15703;49.588;6.260;2023-11-21T10:02:17;6.03;;;4.63;;
28481;SDS011;15703;49.588;6.260;2023-11-21T10:04:42;6.60;;;5.00;;
28481;SDS011;15703;49.588;6.260;2023-11-21T10:07:07;5.27;;;4.77;;
28481;SDS011;15703;49.588;6.260;2023-11-21T10:09:30;6.57;;;4.63;;
28481;SDS011;15703;49.588;6.260;2023-11-21T10:11:53;6.17;;;5.00;;
28481;SDS011;15703;49.588;6.260;2023-11-21T10:14:16;7.80;;;4.97;;
28481;SDS011;15703;49.588;6.260;2023-11-21T10:16:43;7.57;;;5.13;;
28481;SDS011;15703;49.588;6.260;2023-11-21T10:19:09;9.43;;;5.43;;
28481;SDS011;15703;49.588;6.260;2023-11-21T10:21:32;7.93;;;4.77;;
28481;SDS011;15703;49.588;6.260;2023-11-21T10:23:55;5.60;;;4.73;;
28481;SDS011;15703;49.588;6.260;2023-11-21T10:26:18;6.87;;;4.70;;
28481;SDS011;15703;49.588;6.260;2023-11-21T10:28:55;6.80;;;4.67;;
28481;SDS011;15703;49.588;6.260;2023-11-21T10:31:18;5.80;;;4.40;;
28481;SDS011;15703;49.588;6.260;2023-11-21T10:33:40;7.53;;;4.70;;
28481;SDS011;15703;49.588;6.260;2023-11-21T10:36:03;5.43;;;4.43;;
28481;SDS011;15703;49.588;6.260;2023-11-21T10:38:25;5.40;;;4.90;;
28481;SDS011;15703;49.588;6.260;2023-11-21T10:40:49;6.27;;;4.77;;
28481;SDS011;15703;49.588;6.260;2023-11-21T10:43:12;5.17;;;4.37;;
28481;SDS011;15703;49.588;6.260;2023-11-21T10:45:35;6.47;;;4.40;;
28481;SDS011;15703;49.588;6.260;2023-11-21T10:47:58;5.40;;;3.73;;
28481;SDS011;15703;49.588;6.260;2023-11-21T10:50:21;5.97;;;4.33;;
28481;SDS011;15703;49.588;6.260;2023-11-21T10:52:44;6.80;;;4.70;;
28481;SDS011;15703;49.588;6.260;2023-11-21T10:55:15;5.97;;;4.57;;
28481;SDS011;15703;49.588;6.260;2023-11-21T10:57:39;6.57;;;4.67;;
28481;SDS011;15703;49.588;6.260;2023-11-21T11:00:01;5.70;;;4.47;;
28481;SDS011;15703;49.588;6.260;2023-11-21T11:02:25;4.67;;;4.07;;
28481;SDS011;15703;49.588;6.260;2023-11-21T11:04:52;5.10;;;4.40;;
28481;SDS011;15703;49.588;6.260;2023-11-21T11:07:15;5.30;;;4.60;;
28481;SDS011;15703;49.588;6.260;2023-11-21T11:09:38;5.90;;;4.10;;
28481;SDS011;15703;49.588;6.260;2023-11-21T11:12:01;6.37;;;4.10;;
28481;SDS011;15703;49.588;6.260;2023-11-21T11:14:26;7.63;;;4.90;;
28481;SDS011;15703;49.588;6.260;2023-11-21T11:16:49;5.93;;;4.13;;
28481;SDS011;15703;49.588;6.260;2023-11-21T11:19:11;4.60;;;3.80;;
28481;SDS011;15703;49.588;6.260;2023-11-21T11:21:58;6.00;;;4.43;;
28481;SDS011;15703;49.588;6.260;2023-11-21T11:26:55;7.03;;;4.85;;
28481;SDS011;15703;49.588;6.260;2023-11-21T11:29:28;7.40;;;4.60;;
28481;SDS011;15703;49.588;6.260;2023-11-21T11:32:15;6.32;;;5.00;;
28481;SDS011;15703;49.588;6.260;2023-11-21T11:34:41;8.40;;;5.47;;
28481;SDS011;15703;49.588;6.260;2023-11-21T11:37:06;5.77;;;4.70;;
28481;SDS011;15703;49.588;6.260;2023-11-21T11:39:35;6.35;;;5.35;;
28481;SDS011;15703;49.588;6.260;2023-11-21T11:41:58;7.38;;;4.97;;
28481;SDS011;15703;49.588;6.260;2023-11-21T11:47:12;5.70;;;4.77;;
28481;SDS011;15703;49.588;6.260;2023-11-21T11:49:54;5.32;;;4.70;;
28481;SDS011;15703;49.588;6.260;2023-11-21T11:54:59;5.03;;;4.53;;
28481;SDS011;15703;49.588;6.260;2023-11-21T11:57:24;5.07;;;4.03;;
28481;SDS011;15703;49.588;6.260;2023-11-21T12:02:30;4.97;;;4.00;;
28481;SDS011;15703;49.588;6.260;2023-11-21T12:04:55;7.93;;;4.40;;
28481;SDS011;15703;49.588;6.260;2023-11-21T12:07:18;5.50;;;4.13;;
28481;SDS011;15703;49.588;6.260;2023-11-21T12:09:43;7.07;;;4.27;;
28481;SDS011;15703;49.588;6.260;2023-11-21T12:12:08;6.83;;;4.40;;
28481;SDS011;15703;49.588;6.260;2023-11-21T12:14:30;6.63;;;4.67;;
28481;SDS011;15703;49.588;6.260;2023-11-21T12:16:53;6.43;;;4.23;;
28481;SDS011;15703;49.588;6.260;2023-11-21T12:19:15;5.90;;;4.57;;
28481;SDS011;15703;49.588;6.260;2023-11-21T12:21:38;5.30;;;4.60;;
28481;SDS011;15703;49.588;6.260;2023-11-21T12:24:02;7.43;;;4.80;;
28481;SDS011;15703;49.588;6.260;2023-11-21T12:26:25;7.20;;;4.63;;
28481;SDS011;15703;49.588;6.260;2023-11-21T12:28:51;5.43;;;4.70;;
28481;SDS011;15703;49.588;6.260;2023-11-21T12:31:17;5.55;;;4.43;;
28481;SDS011;15703;49.588;6.260;2023-11-21T12:33:43;7.07;;;3.77;;
28481;SDS011;15703;49.588;6.260;2023-11-21T12:36:05;5.38;;;3.80;;
28481;SDS011;15703;49.588;6.260;2023-11-21T12:38:34;4.27;;;3.63;;
28481;SDS011;15703;49.588;6.260;2023-11-21T12:40:57;6.27;;;3.60;;
28481;SDS011;15703;49.588;6.260;2023-11-21T12:43:19;5.97;;;3.80;;
28481;SDS011;15703;49.588;6.260;2023-11-21T12:45:41;4.20;;;3.80;;
28481;SDS011;15703;49.588;6.260;2023-11-21T12:48:05;4.75;;;3.55;;
28481;SDS011;15703;49.588;6.260;2023-11-21T12:50:33;4.53;;;3.50;;
28481;SDS011;15703;49.588;6.260;2023-11-21T12:52:58;5.20;;;3.80;;
28481;SDS011;15703;49.588;6.260;2023-11-21T12:55:21;4.63;;;3.63;;
28481;SDS011;15703;49.588;6.260;2023-11-21T12:57:44;5.25;;;3.72;;
28481;SDS011;15703;49.588;6.260;2023-11-21T13:00:07;4.07;;;3.40;;
28481;SDS011;15703;49.588;6.260;2023-11-21T13:02:34;5.70;;;3.60;;
28481;SDS011;15703;49.588;6.260;2023-11-21T13:04:59;3.50;;;3.17;;
28481;SDS011;15703;49.588;6.260;2023-11-21T13:07:27;5.95;;;3.92;;
28481;SDS011;15703;49.588;6.260;2023-11-21T13:09:53;7.72;;;3.60;;
28481;SDS011;15703;49.588;6.260;2023-11-21T13:12:16;5.20;;;3.97;;
28481;SDS011;15703;49.588;6.260;2023-11-21T13:14:40;5.50;;;3.57;;
28481;SDS011;15703;49.588;6.260;2023-11-21T13:17:02;4.40;;;3.33;;
28481;SDS011;15703;49.588;6.260;2023-11-21T13:19:25;5.97;;;3.65;;
28481;SDS011;15703;49.588;6.260;2023-11-21T13:21:48;4.18;;;3.38;;
28481;SDS011;15703;49.588;6.260;2023-11-21T13:24:11;4.77;;;2.70;;
28481;SDS011;15703;49.588;6.260;2023-11-21T13:26:33;6.53;;;3.28;;
28481;SDS011;15703;49.588;6.260;2023-11-21T13:28:55;4.57;;;2.85;;
28481;SDS011;15703;49.588;6.260;2023-11-21T13:31:20;4.50;;;3.60;;
28481;SDS011;15703;49.588;6.260;2023-11-21T13:33:48;4.60;;;3.30;;
28481;SDS011;15703;49.588;6.260;2023-11-21T13:36:18;5.67;;;3.70;;
28481;SDS011;15703;49.588;6.260;2023-11-21T13:38:43;5.23;;;3.73;;
28481;SDS011;15703;49.588;6.260;2023-11-21T13:41:07;6.10;;;3.67;;
28481;SDS011;15703;49.588;6.260;2023-11-21T13:43:31;6.20;;;3.37;;
28481;SDS011;15703;49.588;6.260;2023-11-21T13:45:55;5.37;;;3.40;;
28481;SDS011;15703;49.588;6.260;2023-11-21T13:48:24;4.27;;;2.97;;
28481;SDS011;15703;49.588;6.260;2023-11-21T13:50:49;5.67;;;3.37;;
28481;SDS011;15703;49.588;6.260;2023-11-21T13:53:20;6.40;;;3.30;;
28481;SDS011;15703;49.588;6.260;2023-11-21T13:55:45;6.03;;;3.80;;
28481;SDS011;15703;49.588;6.260;2023-11-21T13:58:07;4.40;;;3.67;;
28481;SDS011;15703;49.588;6.260;2023-11-21T14:00:33;4.70;;;3.17;;
28481;SDS011;15703;49.588;6.260;2023-11-21T14:03:03;6.73;;;3.10;;
28481;SDS011;15703;49.588;6.260;2023-11-21T14:05:30;3.87;;;2.93;;
28481;SDS011;15703;49.588;6.260;2023-11-21T14:07:58;3.93;;;2.93;;
28481;SDS011;15703;49.588;6.260;2023-11-21T14:10:27;5.47;;;3.23;;
28481;SDS011;15703;49.588;6.260;2023-11-21T14:12:58;4.10;;;3.17;;
28481;SDS011;15703;49.588;6.260;2023-11-21T14:15:20;4.73;;;3.30;;
28481;SDS011;15703;49.588;6.260;2023-11-21T14:17:43;5.77;;;2.80;;
28481;SDS011;15703;49.588;6.260;2023-11-21T14:20:09;5.97;;;3.37;;
28481;SDS011;15703;49.588;6.260;2023-11-21T14:22:38;3.63;;;3.13;;
28481;SDS011;15703;49.588;6.260;2023-11-21T14:25:00;6.80;;;3.10;;
28481;SDS011;15703;49.588;6.260;2023-11-21T14:27:25;3.83;;;2.87;;
28481;SDS011;15703;49.588;6.260;2023-11-21T14:29:47;5.70;;;2.77;;
28481;SDS011;15703;49.588;6.260;2023-11-21T14:32:10;5.40;;;2.60;;
28481;SDS011;15703;49.588;6.260;2023-11-21T14:34:33;5.37;;;2.47;;
28481;SDS011;15703;49.588;6.260;2023-11-21T14:36:55;6.13;;;2.83;;